Aérodrome :
LOGIN :

S'inscrire | Disclaimer

   EN    FR    IT 

 










Légende :    VFR   VFR Marginal   IFR   IFR Intensif   IFR Très Intensif
Visi : 
Plafond : 
>= 8 km
>= 3000ft
5 à 8 km
1000 à 3000 ft
1500m à 5 km
500 à 1000 ft
800 à 1500m
200 à 500 ft
< 800m
< 200 ft
Symboles :   Orages  Brouillard  Fortes neiges  Fortes précipitations  Vent > 20 kt
SIGMETs :   Divers  Orages  Givrage  Turbulence  Onde Orograph.  Cendres Volcan.







- Altitude de l'aérodrome : 681 ft
- Code IATA : LBA
- Voir les cartes d'approche


EGNM - Leeds Bradford

DERNIER METAR :
  • 222020Z 15008KT 9999 BKN019 11/11 Q1018

METARs EXPIRÉS :
  • 221950Z 14006KT 110V180 9999 BKN020 11/11 Q1018
  • 221920Z 15007KT 9999 SCT024 SCT030 11/11 Q1018
  • 221850Z 15008KT 8000 SCT024 SCT030 11/11 Q1018
  • 221820Z 15007KT 8000 -RA SCT025 11/11 Q1018
  • 221750Z 15007KT 6000 -RA SCT025 11/10 Q1018

TAF TAF EGNM
Valide du 22 à 18h jusqu'au 23 à 18h UTC


221709Z 2218/2318 18008KT 9999 FEW040
TEMPO 2218/2224 8000 -RA BKN014
PROB40
TEMPO 2218/2224 4000 -RADZ BR BKN008
TEMPO 2300/2311 4000 -DZ BR BKN004
PROB40 2302/2309 0300 FG BKN001
TEMPO 2311/2318 6000 -RADZ BKN008
ATIS : +44 113 250 9696 (x2489)
Pas de NOTAMs connus pour ce terrain.



MET'MAP, la Météo Aéronautique d'un coup d'oeil ! - Copyright ORBIFLY Décembre 2007 - Disclaimer

ORBIFLY MET'MAP TEAM :

Programmation & Développement : Alexandra Zaïnal
Conception & Développement : Baudouin d'Aumeries
Co-Programmation & Développement : Marc-Olivier Méhu
Soutien technique & logistique : Manuel Goepfert

Contact : metmap@orbifly.com




SOURCES & CREDITS :

   NOAA